createdAt,value
2022-07-31T00:00:22.127Z,21.62
2022-07-31T00:02:48.995Z,21.59
2022-07-31T00:05:15.865Z,21.68
2022-07-31T00:07:43.250Z,21.56
2022-07-31T00:10:10.207Z,21.57
2022-07-31T00:12:39.477Z,21.67
2022-07-31T00:15:08.270Z,21.66
2022-07-31T00:17:35.077Z,21.66
2022-07-31T00:20:02.363Z,21.62
2022-07-31T00:22:29.474Z,21.49
2022-07-31T00:24:56.927Z,21.49
2022-07-31T00:27:24.161Z,21.47
2022-07-31T00:29:51.597Z,21.53
2022-07-31T00:32:18.639Z,21.57
2022-07-31T00:34:45.453Z,21.55
2022-07-31T00:37:12.358Z,21.71
2022-07-31T00:39:39.166Z,21.59
2022-07-31T00:42:06.356Z,21.74
2022-07-31T00:44:33.469Z,21.71
2022-07-31T00:47:01.781Z,21.69
2022-07-31T00:49:37.503Z,21.58
2022-07-31T00:52:05.881Z,21.65
2022-07-31T00:54:33.428Z,21.76
2022-07-31T00:57:01.219Z,21.69
2022-07-31T00:59:29.320Z,21.87
2022-07-31T01:01:58.221Z,21.68
2022-07-31T01:04:26.250Z,21.70
2022-07-31T01:06:55.021Z,21.59
2022-07-31T01:09:22.177Z,21.70
2022-07-31T01:11:52.171Z,21.76
2022-07-31T01:14:25.774Z,21.77
2022-07-31T01:16:55.260Z,21.64
2022-07-31T01:19:42.382Z,21.68
2022-07-31T01:22:45.667Z,21.52
2022-07-31T01:25:51.501Z,21.33
2022-07-31T01:28:46.121Z,21.58
2022-07-31T01:31:27.770Z,21.37
2022-07-31T01:34:26.948Z,21.26
2022-07-31T01:37:12.584Z,21.44
2022-07-31T01:39:45.299Z,21.41
2022-07-31T01:42:15.127Z,21.41
2022-07-31T01:44:48.261Z,21.58
2022-07-31T01:47:19.296Z,21.53
2022-07-31T01:49:48.853Z,21.12
2022-07-31T01:52:18.006Z,21.29
2022-07-31T01:54:46.806Z,21.43
2022-07-31T01:57:18.587Z,21.41
2022-07-31T01:59:54.773Z,21.35
2022-07-31T02:02:42.331Z,21.42
2022-07-31T02:05:11.925Z,21.39
2022-07-31T02:07:41.111Z,21.43
2022-07-31T02:10:11.080Z,21.38
2022-07-31T02:12:38.898Z,21.46
2022-07-31T02:15:12.380Z,21.66
2022-07-31T02:17:44.136Z,21.52
2022-07-31T02:20:41.134Z,21.57
2022-07-31T02:23:09.602Z,21.54
2022-07-31T02:25:37.226Z,21.57
2022-07-31T02:28:10.200Z,21.41
2022-07-31T02:30:41.011Z,21.20
2022-07-31T02:33:28.680Z,21.16
2022-07-31T02:35:56.727Z,21.16
2022-07-31T02:38:26.816Z,20.99
2022-07-31T02:40:59.638Z,21.04
2022-07-31T02:43:31.606Z,21.00
2022-07-31T02:46:02.972Z,20.92
2022-07-31T02:48:30.924Z,21.10
2022-07-31T02:51:02.673Z,21.18
2022-07-31T02:53:30.867Z,20.98
2022-07-31T02:56:04.352Z,21.01
2022-07-31T02:58:33.852Z,21.07
2022-07-31T03:01:04.839Z,21.08
2022-07-31T03:03:33.394Z,21.10
2022-07-31T03:06:00.784Z,21.00
2022-07-31T03:08:28.577Z,21.16
2022-07-31T03:10:58.946Z,20.99
2022-07-31T03:13:28.757Z,20.96
2022-07-31T03:15:56.214Z,20.87
2022-07-31T03:18:24.546Z,20.82
2022-07-31T03:20:52.682Z,20.70
2022-07-31T03:23:25.381Z,20.71
2022-07-31T03:26:06.134Z,20.71
2022-07-31T03:28:36.762Z,20.52
2022-07-31T03:31:04.525Z,20.54
2022-07-31T03:33:31.703Z,20.63
2022-07-31T03:35:59.088Z,20.76
2022-07-31T03:38:38.912Z,20.81
2022-07-31T03:41:13.679Z,20.63
2022-07-31T03:43:46.827Z,20.72
2022-07-31T03:46:19.966Z,20.43
2022-07-31T03:48:47.908Z,20.56
2022-07-31T03:51:15.659Z,20.64
2022-07-31T03:53:43.581Z,20.53
2022-07-31T03:56:20.097Z,20.28
2022-07-31T03:58:49.757Z,20.36
2022-07-31T04:01:20.982Z,20.48
2022-07-31T04:03:58.015Z,20.63
2022-07-31T04:06:34.390Z,20.57
2022-07-31T04:09:10.524Z,20.49
2022-07-31T04:11:46.920Z,20.60
2022-07-31T04:14:14.460Z,20.49
2022-07-31T04:16:41.671Z,20.67
2022-07-31T04:19:08.566Z,20.70
2022-07-31T04:21:36.427Z,20.48
2022-07-31T04:24:04.944Z,20.41
2022-07-31T04:26:58.290Z,20.69
2022-07-31T04:29:31.891Z,20.41
2022-07-31T04:31:58.714Z,20.37
2022-07-31T04:34:32.644Z,20.62
2022-07-31T04:36:59.792Z,20.66
2022-07-31T04:39:26.879Z,20.61
2022-07-31T04:41:56.195Z,20.23
2022-07-31T04:44:23.513Z,20.76
2022-07-31T04:47:04.707Z,20.65
2022-07-31T04:49:34.977Z,20.57
2022-07-31T04:52:04.546Z,20.53
2022-07-31T04:54:31.725Z,20.51
2022-07-31T04:56:59.834Z,20.48
2022-07-31T04:59:58.985Z,20.53
2022-07-31T05:02:14.689Z,20.22
2022-07-31T05:04:41.839Z,20.45
2022-07-31T05:07:08.688Z,20.16
2022-07-31T05:09:36.533Z,20.54
2022-07-31T05:12:06.441Z,20.64
2022-07-31T05:14:33.803Z,20.90
2022-07-31T05:17:00.942Z,20.52
2022-07-31T05:19:42.490Z,20.64
2022-07-31T05:22:26.052Z,20.57
2022-07-31T05:25:11.020Z,20.87
2022-07-31T05:27:39.157Z,20.80
2022-07-31T05:30:09.917Z,20.88
2022-07-31T05:32:37.823Z,20.98
2022-07-31T05:35:05.006Z,21.06
2022-07-31T05:37:33.863Z,20.79
2022-07-31T05:40:00.929Z,20.93
2022-07-31T05:42:46.365Z,21.31
2022-07-31T05:45:51.835Z,21.46
2022-07-31T05:48:18.766Z,21.64
2022-07-31T05:50:47.365Z,21.53
2022-07-31T05:53:15.369Z,21.74
2022-07-31T05:56:14.279Z,21.40
2022-07-31T05:58:48.425Z,21.75
2022-07-31T06:01:16.227Z,21.68
2022-07-31T06:03:51.408Z,21.26
2022-07-31T06:06:21.277Z,21.63
2022-07-31T06:08:48.318Z,21.61
2022-07-31T06:11:15.146Z,21.83
2022-07-31T06:13:43.369Z,21.85
2022-07-31T06:16:33.244Z,21.91
2022-07-31T06:19:00.262Z,21.92
2022-07-31T06:21:30.557Z,21.88
2022-07-31T06:23:57.947Z,21.60
2022-07-31T06:26:36.226Z,22.32
2022-07-31T06:29:04.032Z,22.36
2022-07-31T06:31:30.949Z,22.45
2022-07-31T06:33:58.962Z,22.56
2022-07-31T06:36:33.989Z,21.98
2022-07-31T06:39:02.795Z,22.45
2022-07-31T06:41:44.710Z,22.23
2022-07-31T06:44:31.629Z,22.13
2022-07-31T06:47:18.497Z,22.39
2022-07-31T06:50:05.657Z,22.33
2022-07-31T06:52:41.718Z,22.44
2022-07-31T06:55:09.375Z,22.11
2022-07-31T06:57:38.097Z,22.45
2022-07-31T07:00:19.807Z,22.57
2022-07-31T07:02:50.882Z,22.39
2022-07-31T07:05:18.043Z,22.32
2022-07-31T07:07:48.106Z,22.66
2022-07-31T07:10:15.179Z,22.24
2022-07-31T07:13:16.284Z,22.83
2022-07-31T07:15:43.956Z,22.82
2022-07-31T07:18:11.106Z,22.57
2022-07-31T07:20:48.757Z,22.89
2022-07-31T07:23:17.158Z,22.72
2022-07-31T07:25:54.039Z,22.98
2022-07-31T07:28:30.078Z,22.40
2022-07-31T07:30:58.771Z,22.68
2022-07-31T07:33:41.738Z,23.06
2022-07-31T07:36:23.208Z,22.86
2022-07-31T07:38:56.253Z,23.18
2022-07-31T07:41:25.202Z,22.72
2022-07-31T07:43:53.223Z,22.84
2022-07-31T07:46:23.656Z,22.76
2022-07-31T07:48:54.139Z,23.11
2022-07-31T07:51:59.302Z,23.15
2022-07-31T07:54:38.940Z,22.83
2022-07-31T07:57:38.152Z,22.59
2022-07-31T08:00:23.538Z,22.50
2022-07-31T08:03:46.765Z,22.61
2022-07-31T08:05:46.350Z,22.75
2022-07-31T08:08:13.808Z,23.16
2022-07-31T08:11:01.848Z,23.18
2022-07-31T08:13:40.613Z,23.04
2022-07-31T08:16:16.733Z,23.03
2022-07-31T08:18:48.677Z,23.61
2022-07-31T08:21:16.541Z,23.21
2022-07-31T08:23:43.563Z,23.09
2022-07-31T08:26:11.601Z,23.52
2022-07-31T08:28:40.504Z,23.72
2022-07-31T08:31:08.527Z,23.77
2022-07-31T08:33:47.696Z,23.72
2022-07-31T08:36:14.634Z,23.66
2022-07-31T08:41:28.693Z,23.84
2022-07-31T08:44:03.175Z,24.04
2022-07-31T08:46:37.529Z,23.91
2022-07-31T08:49:06.240Z,23.60
2022-07-31T08:51:51.537Z,23.77
2022-07-31T08:54:50.233Z,24.04
2022-07-31T08:57:17.779Z,24.39
2022-07-31T08:59:44.894Z,24.17
2022-07-31T09:02:15.845Z,24.28
2022-07-31T09:05:02.423Z,24.31
2022-07-31T09:07:29.292Z,24.35
2022-07-31T09:09:56.233Z,24.39
2022-07-31T09:12:33.301Z,24.29
2022-07-31T09:15:05.414Z,24.29
2022-07-31T09:17:35.080Z,23.99
2022-07-31T09:20:04.157Z,23.91
2022-07-31T09:22:34.403Z,24.17
2022-07-31T09:25:12.512Z,23.93
2022-07-31T09:27:40.573Z,24.09
2022-07-31T09:30:08.521Z,24.03
2022-07-31T09:32:57.274Z,24.09
2022-07-31T09:35:52.793Z,23.99
2022-07-31T09:38:20.615Z,23.94
2022-07-31T09:41:26.790Z,23.96
2022-07-31T09:44:12.123Z,24.01
2022-07-31T09:46:45.456Z,24.05
2022-07-31T09:49:12.769Z,24.12
2022-07-31T09:51:47.083Z,24.02
2022-07-31T09:54:22.087Z,23.91
2022-07-31T09:57:12.704Z,23.85
2022-07-31T09:59:51.492Z,23.91
2022-07-31T10:02:20.121Z,23.82
2022-07-31T10:04:50.224Z,23.83
2022-07-31T10:07:31.563Z,23.57
2022-07-31T10:10:07.079Z,23.48
2022-07-31T10:12:55.486Z,23.75
2022-07-31T10:15:23.842Z,23.49
2022-07-31T10:18:13.499Z,23.32
2022-07-31T10:20:57.309Z,23.43
2022-07-31T10:23:59.640Z,23.32
2022-07-31T10:26:57.441Z,23.27
2022-07-31T10:29:17.201Z,23.21
2022-07-31T10:31:46.439Z,23.09
2022-07-31T10:34:15.869Z,23.15
2022-07-31T10:37:44.579Z,23.24
2022-07-31T10:41:03.616Z,22.88
2022-07-31T10:43:41.816Z,22.73
2022-07-31T10:46:27.157Z,22.67
2022-07-31T10:49:15.141Z,22.42
2022-07-31T10:52:01.311Z,22.16
2022-07-31T10:54:59.549Z,22.84
2022-07-31T10:57:57.464Z,22.59
2022-07-31T11:00:43.102Z,22.22
2022-07-31T11:03:21.813Z,22.70
2022-07-31T11:06:07.591Z,22.89
2022-07-31T11:08:54.795Z,22.44
2022-07-31T11:11:55.761Z,22.40
2022-07-31T11:14:45.627Z,22.35
2022-07-31T11:18:23.679Z,22.17
2022-07-31T11:20:32.755Z,22.33
2022-07-31T11:23:04.827Z,22.30
2022-07-31T11:25:34.968Z,21.97
2022-07-31T11:28:18.851Z,22.13
2022-07-31T11:31:03.430Z,22.22
2022-07-31T11:33:42.845Z,22.02
2022-07-31T11:36:24.226Z,22.09
2022-07-31T11:38:56.563Z,22.23
2022-07-31T11:41:29.730Z,22.05
2022-07-31T11:44:05.528Z,21.95
2022-07-31T11:46:34.625Z,21.86
2022-07-31T11:49:02.277Z,21.74
2022-07-31T11:51:29.675Z,21.76
2022-07-31T11:53:57.944Z,21.89
2022-07-31T11:56:27.501Z,22.22
2022-07-31T11:58:56.464Z,22.19
2022-07-31T12:01:29.028Z,21.82
2022-07-31T12:04:07.568Z,22.02
2022-07-31T12:06:37.019Z,21.76
2022-07-31T12:09:04.353Z,21.52
2022-07-31T12:11:31.260Z,21.82
2022-07-31T12:13:59.393Z,21.93
2022-07-31T12:16:26.334Z,21.68
2022-07-31T12:18:58.745Z,22.01
2022-07-31T12:21:37.018Z,21.76
2022-07-31T12:24:14.328Z,21.41
2022-07-31T12:26:49.358Z,21.19
2022-07-31T12:29:16.207Z,21.38
2022-07-31T12:31:45.834Z,21.35
2022-07-31T12:34:14.147Z,21.05
2022-07-31T12:36:41.622Z,21.11
2022-07-31T12:39:11.731Z,20.87
2022-07-31T12:41:43.255Z,20.89
2022-07-31T12:44:13.444Z,20.84
2022-07-31T12:46:41.718Z,20.75
2022-07-31T12:49:08.951Z,21.03
2022-07-31T12:51:45.464Z,21.18
2022-07-31T12:54:18.049Z,21.11
2022-07-31T12:56:47.005Z,20.99
2022-07-31T12:59:14.297Z,21.01
2022-07-31T13:01:41.918Z,20.87
2022-07-31T13:04:18.188Z,20.86
2022-07-31T13:06:48.632Z,21.12
2022-07-31T13:09:16.140Z,20.81
2022-07-31T13:11:45.634Z,20.98
2022-07-31T13:14:15.260Z,21.24
2022-07-31T13:16:42.103Z,21.01
2022-07-31T13:19:08.923Z,20.69
2022-07-31T13:21:38.669Z,20.16
2022-07-31T13:24:15.797Z,20.57
2022-07-31T13:26:45.205Z,20.98
2022-07-31T13:29:12.722Z,20.72
2022-07-31T13:31:39.578Z,20.64
2022-07-31T13:34:06.868Z,20.78
2022-07-31T13:36:38.880Z,20.73
2022-07-31T13:39:10.716Z,20.93
2022-07-31T13:41:39.212Z,20.92
2022-07-31T13:44:07.134Z,21.37
2022-07-31T13:46:34.439Z,21.38
2022-07-31T13:49:02.251Z,21.58
2022-07-31T13:51:30.137Z,21.49
2022-07-31T13:53:57.208Z,21.38
2022-07-31T13:56:39.145Z,21.51
2022-07-31T13:59:11.367Z,21.14
2022-07-31T14:02:03.222Z,20.91
2022-07-31T14:04:32.773Z,20.93
2022-07-31T14:07:01.371Z,21.12
2022-07-31T14:09:31.113Z,21.32
2022-07-31T14:11:58.038Z,21.09
2022-07-31T14:14:24.899Z,21.31
2022-07-31T14:16:51.731Z,21.35
2022-07-31T14:19:18.701Z,21.63
2022-07-31T14:21:56.039Z,21.96
2022-07-31T14:24:24.622Z,21.91
2022-07-31T14:26:51.489Z,22.42
2022-07-31T14:29:18.394Z,22.16
2022-07-31T14:31:45.282Z,22.02
2022-07-31T14:34:12.343Z,21.92
2022-07-31T14:36:39.317Z,22.07
2022-07-31T14:39:06.267Z,21.83
2022-07-31T14:41:33.446Z,21.88
2022-07-31T14:44:00.613Z,21.64
2022-07-31T14:46:27.516Z,21.50
2022-07-31T14:48:54.499Z,21.96
2022-07-31T14:51:21.429Z,21.60
2022-07-31T14:53:48.311Z,21.47
2022-07-31T14:56:27.310Z,21.78
2022-07-31T14:59:03.129Z,22.04
2022-07-31T15:01:30.667Z,22.03
2022-07-31T15:03:58.622Z,21.94
2022-07-31T15:06:41.657Z,22.16
2022-07-31T15:09:16.353Z,22.14
2022-07-31T15:12:01.208Z,22.07
2022-07-31T15:14:30.340Z,22.04
2022-07-31T15:16:57.855Z,22.04
2022-07-31T15:19:24.728Z,22.28
2022-07-31T15:22:15.665Z,22.22
2022-07-31T15:24:42.475Z,22.16
2022-07-31T15:27:13.714Z,22.05
2022-07-31T15:30:00.672Z,22.33
2022-07-31T15:32:27.974Z,22.40
2022-07-31T15:34:54.831Z,22.53
2022-07-31T15:37:21.747Z,22.54
2022-07-31T15:40:01.964Z,22.24
2022-07-31T15:42:38.057Z,22.09
2022-07-31T15:45:06.106Z,22.35
2022-07-31T15:47:32.951Z,21.99
2022-07-31T15:49:59.831Z,22.30
2022-07-31T15:52:26.946Z,21.85
2022-07-31T15:54:54.017Z,22.35
2022-07-31T15:57:21.907Z,22.03
2022-07-31T15:59:49.843Z,22.09
2022-07-31T16:02:17.309Z,22.29
2022-07-31T16:04:53.097Z,22.01
2022-07-31T16:08:34.250Z,22.51
2022-07-31T16:10:16.821Z,22.13
2022-07-31T16:12:48.129Z,21.97
2022-07-31T16:15:17.859Z,22.08
2022-07-31T16:17:45.394Z,22.36
2022-07-31T16:20:25.910Z,22.41
2022-07-31T16:23:02.750Z,22.20
2022-07-31T16:25:32.097Z,22.19
2022-07-31T16:28:04.034Z,21.47
2022-07-31T16:30:31.887Z,21.73
2022-07-31T16:32:58.849Z,21.88
2022-07-31T16:35:29.006Z,21.78
2022-07-31T16:37:55.978Z,21.91
2022-07-31T16:40:28.837Z,21.89
2022-07-31T16:43:49.489Z,21.75
2022-07-31T16:45:54.169Z,21.62
2022-07-31T16:48:21.406Z,21.75
2022-07-31T16:50:53.288Z,21.63
2022-07-31T16:54:11.111Z,21.60
2022-07-31T16:56:13.233Z,21.72
2022-07-31T16:58:40.183Z,21.93
2022-07-31T17:01:53.827Z,21.50
2022-07-31T17:04:01.427Z,21.73
2022-07-31T17:06:36.299Z,21.82
2022-07-31T17:09:16.048Z,21.57
2022-07-31T17:11:46.042Z,21.58
2022-07-31T17:14:12.974Z,21.59
2022-07-31T17:16:44.856Z,21.61
2022-07-31T17:19:13.949Z,21.58
2022-07-31T17:21:44.553Z,21.63
2022-07-31T17:24:15.692Z,21.70
2022-07-31T17:26:44.066Z,21.47
2022-07-31T17:29:12.306Z,21.47
2022-07-31T17:31:39.312Z,21.80
2022-07-31T17:34:09.267Z,21.42
2022-07-31T17:36:36.679Z,21.78
2022-07-31T17:39:04.536Z,21.73
2022-07-31T17:41:31.730Z,21.57
2022-07-31T17:43:58.551Z,21.73
2022-07-31T17:46:34.767Z,21.98
2022-07-31T17:49:19.227Z,21.52
2022-07-31T17:51:59.326Z,21.60
2022-07-31T17:54:31.681Z,21.45
2022-07-31T17:56:59.332Z,21.52
2022-07-31T17:59:26.668Z,21.83
2022-07-31T18:01:59.676Z,21.58
2022-07-31T18:04:32.466Z,21.70
2022-07-31T18:07:00.964Z,21.73
2022-07-31T18:09:28.578Z,21.55
2022-07-31T18:11:56.479Z,21.65
2022-07-31T18:14:24.288Z,21.83
2022-07-31T18:16:52.384Z,21.83
2022-07-31T18:19:20.149Z,21.53
2022-07-31T18:21:47.304Z,21.91
2022-07-31T18:24:14.174Z,21.79
2022-07-31T18:26:40.978Z,21.50
2022-07-31T18:29:07.845Z,21.59
2022-07-31T18:31:35.866Z,21.47
2022-07-31T18:34:04.728Z,21.57
2022-07-31T18:36:32.841Z,21.78
2022-07-31T18:39:00.148Z,21.91
2022-07-31T18:41:27.724Z,21.57
2022-07-31T18:43:55.593Z,21.60
2022-07-31T18:46:24.644Z,21.58
2022-07-31T18:48:55.297Z,21.78
2022-07-31T18:51:23.273Z,21.37
2022-07-31T18:53:50.672Z,21.84
2022-07-31T18:56:17.589Z,21.63
2022-07-31T18:58:44.583Z,21.63
2022-07-31T19:01:11.922Z,21.79
2022-07-31T19:03:38.798Z,21.55
2022-07-31T19:06:05.734Z,21.19
2022-07-31T19:08:32.699Z,21.37
2022-07-31T19:10:59.621Z,21.60
2022-07-31T19:13:26.517Z,21.44
2022-07-31T19:15:53.502Z,21.76
2022-07-31T19:18:27.895Z,21.99
2022-07-31T19:21:23.395Z,22.13
2022-07-31T19:23:43.906Z,22.19
2022-07-31T19:26:10.927Z,22.01
2022-07-31T19:28:39.675Z,21.87
2022-07-31T19:31:07.263Z,22.10
2022-07-31T19:33:34.753Z,21.72
2022-07-31T19:36:03.120Z,22.04
2022-07-31T19:38:35.601Z,21.34
2022-07-31T19:41:03.190Z,21.66
2022-07-31T19:43:30.268Z,21.59
2022-07-31T19:46:10.632Z,21.80
2022-07-31T19:48:43.925Z,21.50
2022-07-31T19:51:12.440Z,21.00
2022-07-31T19:53:39.673Z,21.28
2022-07-31T19:56:07.010Z,21.09
2022-07-31T19:58:35.443Z,21.26
2022-07-31T20:01:03.708Z,20.98
2022-07-31T20:03:30.718Z,21.05
2022-07-31T20:05:57.891Z,20.98
2022-07-31T20:08:24.774Z,21.22
2022-07-31T20:10:51.735Z,21.20
2022-07-31T20:13:19.677Z,21.37
2022-07-31T20:15:52.145Z,21.14
2022-07-31T20:18:27.953Z,21.22
2022-07-31T20:20:57.422Z,21.04
2022-07-31T20:23:25.812Z,21.16
2022-07-31T20:25:53.055Z,21.43
2022-07-31T20:28:19.915Z,21.08
2022-07-31T20:30:46.838Z,21.33
2022-07-31T20:33:13.901Z,21.48
2022-07-31T20:35:48.615Z,21.44
2022-07-31T20:38:21.326Z,21.59
2022-07-31T20:40:53.408Z,21.32
2022-07-31T20:43:26.461Z,21.50
2022-07-31T20:45:57.144Z,21.56
2022-07-31T20:48:32.274Z,21.22
2022-07-31T20:51:00.431Z,21.50
2022-07-31T20:53:28.218Z,21.28
2022-07-31T20:55:55.413Z,21.43
2022-07-31T20:58:23.714Z,21.40
2022-07-31T21:00:51.926Z,21.25
2022-07-31T21:03:19.153Z,21.28
2022-07-31T21:05:46.620Z,21.26
2022-07-31T21:08:13.631Z,21.16
2022-07-31T21:10:40.706Z,21.30
2022-07-31T21:13:09.164Z,21.40
2022-07-31T21:15:43.584Z,21.52
2022-07-31T21:18:16.192Z,21.43
2022-07-31T21:20:50.837Z,21.46
2022-07-31T21:23:22.642Z,21.49
2022-07-31T21:25:50.799Z,21.52
2022-07-31T21:28:18.166Z,21.66
2022-07-31T21:30:45.509Z,21.74
2022-07-31T21:33:12.672Z,21.65
2022-07-31T21:35:40.200Z,21.62
2022-07-31T21:38:12.146Z,21.73
2022-07-31T21:40:39.885Z,21.63
2022-07-31T21:43:07.309Z,21.26
2022-07-31T21:45:51.369Z,20.86
2022-07-31T21:48:23.705Z,21.01
2022-07-31T21:50:50.839Z,21.31
2022-07-31T21:53:17.669Z,21.34
2022-07-31T21:55:44.470Z,20.80
2022-07-31T21:58:14.470Z,20.90
2022-07-31T22:00:41.560Z,20.93
2022-07-31T22:03:08.573Z,20.90
2022-07-31T22:05:53.855Z,20.69
2022-07-31T22:08:21.238Z,20.66
2022-07-31T22:10:51.280Z,20.52
2022-07-31T22:13:19.598Z,20.65
2022-07-31T22:15:54.264Z,20.82
2022-07-31T22:18:29.888Z,20.63
2022-07-31T22:20:57.973Z,20.73
2022-07-31T22:23:26.320Z,20.87
2022-07-31T22:25:53.421Z,20.94
2022-07-31T22:28:22.036Z,21.08
2022-07-31T22:30:49.752Z,20.84
2022-07-31T22:33:16.762Z,20.86
2022-07-31T22:35:43.726Z,20.98
2022-07-31T22:38:15.540Z,21.01
2022-07-31T22:40:42.600Z,20.69
2022-07-31T22:44:13.707Z,20.88
2022-07-31T22:46:00.694Z,20.95
2022-07-31T22:48:27.950Z,20.63
2022-07-31T22:50:56.186Z,20.62
2022-07-31T22:53:24.095Z,20.59
2022-07-31T22:55:54.147Z,20.95
2022-07-31T22:58:21.549Z,21.11
2022-07-31T23:00:49.914Z,20.76
2022-07-31T23:03:17.438Z,20.86
2022-07-31T23:06:02.397Z,20.73
2022-07-31T23:08:31.042Z,20.64
2022-07-31T23:10:57.913Z,20.97
2022-07-31T23:13:24.761Z,21.01
2022-07-31T23:15:51.598Z,21.22
2022-07-31T23:18:18.450Z,21.51
2022-07-31T23:20:45.327Z,21.53
2022-07-31T23:23:12.125Z,21.26
2022-07-31T23:25:38.932Z,21.56
2022-07-31T23:28:05.824Z,21.40
2022-07-31T23:30:32.639Z,21.45
2022-07-31T23:32:59.440Z,20.98
2022-07-31T23:35:26.287Z,20.90
2022-07-31T23:37:53.131Z,21.37
2022-07-31T23:40:20.065Z,21.24
2022-07-31T23:42:48.725Z,21.22
2022-07-31T23:45:15.898Z,20.98
2022-07-31T23:47:44.598Z,21.01
2022-07-31T23:50:12.234Z,20.98
2022-07-31T23:52:39.051Z,20.91
2022-07-31T23:55:06.149Z,20.71
2022-07-31T23:57:34.382Z,20.85
